createdAt,value
2023-04-23T00:01:35.236Z,2.42
2023-04-23T00:04:06.761Z,2.85
2023-04-23T00:06:37.136Z,2.70
2023-04-23T00:09:07.661Z,0.93
2023-04-23T00:11:36.115Z,3.67
2023-04-23T00:14:04.512Z,4.82
2023-04-23T00:16:33.184Z,1.95
2023-04-23T00:19:01.220Z,2.70
2023-04-23T00:21:29.187Z,1.95
2023-04-23T00:23:58.563Z,2.67
2023-04-23T00:26:26.607Z,2.13
2023-04-23T00:28:54.593Z,1.27
2023-04-23T00:31:24.312Z,1.55
2023-04-23T00:33:52.314Z,3.30
2023-04-23T00:36:20.324Z,6.57
2023-04-23T00:38:48.323Z,1.15
2023-04-23T00:41:17.686Z,2.65
2023-04-23T00:43:45.828Z,1.83
2023-04-23T00:46:14.090Z,2.40
2023-04-23T00:48:42.983Z,2.03
2023-04-23T00:51:12.925Z,2.55
2023-04-23T00:53:41.128Z,2.42
2023-04-23T00:56:09.671Z,1.42
2023-04-23T00:58:39.388Z,1.55
2023-04-23T01:01:07.895Z,3.42
2023-04-23T01:03:38.059Z,3.15
2023-04-23T01:06:07.645Z,2.05
2023-04-23T01:08:36.496Z,2.55
2023-04-23T01:11:04.873Z,1.90
2023-04-23T01:13:32.929Z,2.35
2023-04-23T01:16:02.536Z,3.33
2023-04-23T01:18:31.129Z,1.85
2023-04-23T01:20:59.789Z,3.10
2023-04-23T01:23:29.297Z,3.50
2023-04-23T01:25:57.670Z,3.38
2023-04-23T01:28:25.814Z,1.23
2023-04-23T01:30:54.318Z,3.85
2023-04-23T01:33:24.695Z,1.98
2023-04-23T01:35:53.072Z,1.52
2023-04-23T01:38:23.592Z,1.90
2023-04-23T01:40:52.946Z,1.25
2023-04-23T01:43:23.632Z,0.90
2023-04-23T01:45:52.752Z,3.13
2023-04-23T01:48:21.047Z,3.70
2023-04-23T01:50:49.622Z,4.75
2023-04-23T01:53:17.956Z,1.83
2023-04-23T01:55:48.055Z,2.50
2023-04-23T01:58:17.787Z,3.33
2023-04-23T02:00:46.032Z,2.47
2023-04-23T02:03:14.161Z,2.13
2023-04-23T02:05:43.222Z,1.98
2023-04-23T02:08:11.708Z,4.00
2023-04-23T02:10:39.758Z,2.30
2023-04-23T02:13:07.832Z,2.10
2023-04-23T02:15:38.235Z,2.00
2023-04-23T02:18:06.849Z,1.65
2023-04-23T02:20:36.246Z,4.05
2023-04-23T02:23:04.648Z,6.38
2023-04-23T02:25:33.319Z,1.67
2023-04-23T02:28:05.365Z,5.13
2023-04-23T02:30:33.651Z,4.68
2023-04-23T02:33:03.724Z,2.97
2023-04-23T02:35:31.791Z,1.45
2023-04-23T02:37:59.715Z,2.60
2023-04-23T02:40:27.642Z,2.33
2023-04-23T02:42:55.838Z,2.83
2023-04-23T02:45:23.916Z,3.85
2023-04-23T02:47:53.433Z,4.30
2023-04-23T02:50:23.212Z,2.25
2023-04-23T02:52:51.281Z,2.53
2023-04-23T02:55:19.342Z,1.63
2023-04-23T02:57:47.572Z,2.20
2023-04-23T03:00:17.091Z,3.50
2023-04-23T03:02:45.832Z,1.75
2023-04-23T03:05:14.075Z,1.30
2023-04-23T03:07:44.075Z,4.32
2023-04-23T03:10:12.300Z,2.25
2023-04-23T03:12:40.368Z,4.38
2023-04-23T03:15:09.090Z,4.68
2023-04-23T03:17:38.879Z,2.38
2023-04-23T03:20:11.004Z,1.73
2023-04-23T03:22:40.037Z,3.13
2023-04-23T03:25:10.366Z,1.92
2023-04-23T03:27:40.555Z,2.70
2023-04-23T03:30:10.005Z,2.03
2023-04-23T03:32:38.256Z,3.08
2023-04-23T03:35:07.211Z,1.98
2023-04-23T03:37:35.403Z,2.55
2023-04-23T03:40:07.693Z,3.65
2023-04-23T03:42:40.596Z,3.85
2023-04-23T03:45:11.272Z,5.15
2023-04-23T03:47:39.314Z,2.35
2023-04-23T03:50:09.105Z,2.30
2023-04-23T03:52:37.353Z,2.65
2023-04-23T03:55:06.328Z,4.30
2023-04-23T03:57:42.162Z,2.28
2023-04-23T04:00:20.851Z,2.05
2023-04-23T04:02:49.013Z,3.00
2023-04-23T04:05:17.315Z,2.10
2023-04-23T04:07:46.967Z,1.33
2023-04-23T04:10:15.139Z,4.28
2023-04-23T04:12:47.840Z,3.60
2023-04-23T04:15:17.455Z,3.35
2023-04-23T04:17:45.989Z,3.38
2023-04-23T04:20:14.685Z,4.43
2023-04-23T04:22:42.646Z,6.47
2023-04-23T04:25:12.328Z,2.38
2023-04-23T04:27:41.499Z,3.95
2023-04-23T04:30:11.936Z,2.40
2023-04-23T04:32:40.620Z,3.17
2023-04-23T04:35:09.885Z,2.67
2023-04-23T04:37:38.031Z,4.05
2023-04-23T04:40:08.089Z,1.23
2023-04-23T04:42:36.295Z,1.83
2023-04-23T04:45:06.071Z,2.78
2023-04-23T04:47:35.537Z,3.92
2023-04-23T04:50:04.041Z,2.13
2023-04-23T04:52:32.168Z,2.60
2023-04-23T04:55:00.100Z,3.88
2023-04-23T04:57:28.064Z,2.90
2023-04-23T04:59:55.983Z,3.95
2023-04-23T05:02:24.113Z,2.55
2023-04-23T05:04:53.994Z,3.38
2023-04-23T05:07:21.989Z,1.95
2023-04-23T05:09:49.966Z,3.40
2023-04-23T05:12:17.954Z,1.50
2023-04-23T05:14:46.657Z,1.88
2023-04-23T05:17:14.565Z,2.58
2023-04-23T05:19:42.688Z,2.10
2023-04-23T05:22:12.172Z,2.03
2023-04-23T05:24:40.515Z,3.80
2023-04-23T05:27:08.604Z,1.95
2023-04-23T05:29:36.694Z,4.55
2023-04-23T05:32:04.861Z,2.33
2023-04-23T05:34:32.860Z,3.22
2023-04-23T05:37:01.485Z,2.30
2023-04-23T05:39:30.849Z,1.35
2023-04-23T05:41:59.022Z,3.10
2023-04-23T05:44:27.111Z,3.08
2023-04-23T05:46:55.168Z,2.25
2023-04-23T05:49:24.023Z,2.67
2023-04-23T05:51:52.459Z,2.05
2023-04-23T05:54:20.666Z,1.90
2023-04-23T05:56:50.002Z,3.33
2023-04-23T05:59:17.921Z,2.50
2023-04-23T06:01:46.306Z,2.40
2023-04-23T06:04:14.830Z,2.20
2023-04-23T06:06:43.687Z,4.78
2023-04-23T06:09:12.319Z,1.30
2023-04-23T06:11:40.394Z,2.60
2023-04-23T06:14:09.913Z,2.72
2023-04-23T06:16:37.980Z,3.10
2023-04-23T06:19:06.607Z,1.83
2023-04-23T06:21:34.817Z,1.33
2023-04-23T06:24:02.872Z,3.30
2023-04-23T06:26:32.212Z,2.67
2023-04-23T06:29:05.999Z,5.30
2023-04-23T06:31:41.641Z,1.52
2023-04-23T06:34:10.005Z,1.92
2023-04-23T06:36:38.020Z,2.92
2023-04-23T06:39:06.167Z,2.78
2023-04-23T06:41:34.351Z,2.10
2023-04-23T06:44:13.192Z,2.55
2023-04-23T06:46:50.251Z,3.15
2023-04-23T06:49:18.248Z,2.67
2023-04-23T06:51:46.258Z,3.28
2023-04-23T06:54:14.336Z,3.30
2023-04-23T06:56:42.343Z,2.22
2023-04-23T06:59:10.431Z,1.92
2023-04-23T07:01:46.292Z,3.78
2023-04-23T07:04:15.939Z,1.85
2023-04-23T07:06:43.980Z,1.60
2023-04-23T07:09:11.991Z,3.13
2023-04-23T07:11:40.199Z,1.58
2023-04-23T07:14:09.115Z,3.58
2023-04-23T07:16:37.134Z,2.80
2023-04-23T07:19:05.253Z,4.60
2023-04-23T07:21:34.665Z,1.95
2023-04-23T07:24:07.334Z,1.67
2023-04-23T07:26:35.975Z,2.40
2023-04-23T07:29:04.526Z,2.05
2023-04-23T07:31:32.514Z,3.90
2023-04-23T07:34:01.300Z,4.72
2023-04-23T07:36:29.570Z,2.03
2023-04-23T07:38:58.899Z,2.08
2023-04-23T07:41:26.874Z,3.10
2023-04-23T07:43:54.987Z,5.55
2023-04-23T07:46:23.157Z,2.20
2023-04-23T07:48:51.540Z,3.28
2023-04-23T07:51:19.566Z,3.70
2023-04-23T07:53:49.173Z,5.75
2023-04-23T07:56:18.655Z,4.03
2023-04-23T07:58:46.711Z,5.82
2023-04-23T08:01:14.949Z,3.80
2023-04-23T08:03:43.135Z,7.43
2023-04-23T08:06:12.253Z,7.28
2023-04-23T08:08:40.453Z,6.88
2023-04-23T08:11:08.689Z,1.77
2023-04-23T08:13:38.273Z,3.70
2023-04-23T08:16:06.913Z,2.60
2023-04-23T08:18:35.286Z,2.15
2023-04-23T08:21:03.271Z,5.35
2023-04-23T08:23:31.374Z,3.75
2023-04-23T08:25:59.486Z,3.78
2023-04-23T08:28:28.000Z,3.30
2023-04-23T08:30:57.478Z,2.15
2023-04-23T08:33:25.557Z,8.82
2023-04-23T08:35:53.761Z,4.80
2023-04-23T08:38:21.895Z,2.78
2023-04-23T08:40:51.625Z,2.92
2023-04-23T08:43:21.393Z,3.25
2023-04-23T08:45:50.374Z,2.25
2023-04-23T08:48:20.555Z,3.55
2023-04-23T08:50:49.426Z,6.57
2023-04-23T08:53:20.354Z,2.72
2023-04-23T08:55:51.857Z,4.40
2023-04-23T08:58:20.278Z,1.85
2023-04-23T09:00:49.622Z,3.28
2023-04-23T09:03:19.464Z,3.45
2023-04-23T09:05:47.934Z,2.58
2023-04-23T09:08:16.097Z,5.13
2023-04-23T09:10:46.094Z,4.55
2023-04-23T09:13:15.583Z,4.85
2023-04-23T09:15:44.435Z,2.63
2023-04-23T09:18:12.531Z,3.20
2023-04-23T09:20:42.034Z,2.47
2023-04-23T09:23:10.241Z,6.50
2023-04-23T09:25:38.221Z,1.17
2023-04-23T09:28:08.877Z,7.85
2023-04-23T09:30:42.309Z,4.13
2023-04-23T09:33:12.990Z,1.85
2023-04-23T09:35:43.392Z,8.43
2023-04-23T09:38:11.371Z,5.00
2023-04-23T09:40:39.347Z,3.78
2023-04-23T09:43:11.319Z,9.07
2023-04-23T09:45:49.306Z,7.00
2023-04-23T09:48:17.367Z,3.70
2023-04-23T09:50:47.553Z,4.45
2023-04-23T09:53:15.643Z,4.03
2023-04-23T09:55:46.179Z,5.90
2023-04-23T09:58:16.245Z,4.68
2023-04-23T10:00:44.508Z,2.38
2023-04-23T10:03:12.785Z,6.60
2023-04-23T10:08:16.065Z,3.17
2023-04-23T10:11:00.019Z,6.70
2023-04-23T10:13:35.680Z,5.13
2023-04-23T10:16:20.699Z,2.83
2023-04-23T10:18:52.430Z,4.65
2023-04-23T10:21:21.253Z,4.65
2023-04-23T10:23:52.438Z,12.32
2023-04-23T10:26:24.063Z,2.97
2023-04-23T10:28:56.133Z,7.43
2023-04-23T10:31:25.581Z,3.30
2023-04-23T10:33:58.144Z,1.30
2023-04-23T10:36:29.044Z,2.78
2023-04-23T10:39:01.911Z,6.72
2023-04-23T10:41:36.715Z,1.20
2023-04-23T10:44:05.862Z,4.20
2023-04-23T10:46:37.890Z,1.55
2023-04-23T10:49:09.001Z,2.60
2023-04-23T10:54:11.192Z,4.85
2023-04-23T10:56:40.166Z,3.08
2023-04-23T10:59:09.689Z,2.15
2023-04-23T11:01:37.783Z,6.20
2023-04-23T11:04:22.517Z,2.42
2023-04-23T11:06:56.341Z,9.52
2023-04-23T11:09:41.021Z,2.92
2023-04-23T11:12:12.054Z,2.70
2023-04-23T11:14:47.266Z,4.65
2023-04-23T11:17:16.957Z,3.00
2023-04-23T11:20:10.651Z,4.13
2023-04-23T11:22:39.898Z,1.83
2023-04-23T11:25:12.492Z,3.63
2023-04-23T11:27:42.153Z,1.25
2023-04-23T11:30:14.243Z,2.38
2023-04-23T11:32:42.541Z,5.30
2023-04-23T11:35:13.620Z,4.88
2023-04-23T11:37:42.702Z,2.03
2023-04-23T11:40:18.657Z,3.90
2023-04-23T11:42:47.950Z,5.72
2023-04-23T11:45:19.264Z,1.77
2023-04-23T11:47:50.919Z,3.05
2023-04-23T11:50:19.375Z,3.70
2023-04-23T11:52:47.519Z,8.20
2023-04-23T11:55:17.522Z,2.90
2023-04-23T11:57:47.093Z,4.50
2023-04-23T12:00:18.922Z,4.00
2023-04-23T12:02:54.471Z,7.30
2023-04-23T12:05:23.823Z,3.97
2023-04-23T12:07:52.989Z,3.08
2023-04-23T12:10:23.197Z,4.38
2023-04-23T12:12:52.886Z,4.65
2023-04-23T12:15:21.418Z,6.18
2023-04-23T12:17:51.345Z,3.03
2023-04-23T12:20:22.880Z,5.70
2023-04-23T12:22:51.025Z,5.15
2023-04-23T12:25:24.872Z,4.55
2023-04-23T12:27:53.012Z,2.20
2023-04-23T12:30:20.958Z,5.60
2023-04-23T12:32:49.131Z,2.38
2023-04-23T12:35:17.218Z,4.53
2023-04-23T12:37:45.430Z,10.20
2023-04-23T12:40:13.591Z,3.40
2023-04-23T12:42:43.256Z,1.75
2023-04-23T12:45:11.996Z,4.10
2023-04-23T12:47:40.304Z,2.97
2023-04-23T12:50:09.284Z,1.40
2023-04-23T12:52:38.231Z,6.22
2023-04-23T12:55:06.836Z,2.15
2023-04-23T12:57:34.956Z,2.17
2023-04-23T13:00:04.984Z,6.28
2023-04-23T13:02:33.226Z,4.50
2023-04-23T13:05:01.821Z,5.15
2023-04-23T13:07:29.932Z,3.38
2023-04-23T13:09:59.756Z,2.13
2023-04-23T13:12:28.441Z,5.72
2023-04-23T13:14:56.405Z,3.28
2023-04-23T13:17:26.406Z,5.47
2023-04-23T13:19:54.710Z,1.55
2023-04-23T13:22:28.281Z,3.70
2023-04-23T13:24:57.179Z,4.60
2023-04-23T13:27:26.322Z,2.78
2023-04-23T13:29:54.291Z,4.90
2023-04-23T13:32:23.647Z,5.22
2023-04-23T13:34:53.081Z,1.48
2023-04-23T13:37:21.216Z,2.83
2023-04-23T13:39:49.756Z,5.18
2023-04-23T13:42:17.691Z,7.55
2023-04-23T13:44:45.653Z,3.08
2023-04-23T13:47:13.826Z,2.95
2023-04-23T13:49:41.861Z,3.60
2023-04-23T13:52:11.475Z,5.35
2023-04-23T13:54:40.225Z,9.10
2023-04-23T13:57:08.343Z,5.10
2023-04-23T13:59:36.738Z,5.75
2023-04-23T14:02:04.768Z,3.85
2023-04-23T14:04:32.853Z,4.38
2023-04-23T14:07:00.910Z,8.82
2023-04-23T14:09:30.917Z,12.15
2023-04-23T14:11:59.154Z,4.15
2023-04-23T14:14:27.054Z,7.22
2023-04-23T14:16:55.061Z,4.60
2023-04-23T14:19:26.093Z,7.80
2023-04-23T14:21:54.224Z,6.57
2023-04-23T14:24:24.888Z,4.15
2023-04-23T14:26:54.405Z,5.95
2023-04-23T14:29:32.701Z,5.85
2023-04-23T14:32:00.766Z,3.75
2023-04-23T14:34:28.558Z,5.70
2023-04-23T14:36:56.694Z,6.65
2023-04-23T14:39:25.873Z,6.40
2023-04-23T14:41:55.336Z,3.40
2023-04-23T14:44:26.367Z,3.92
2023-04-23T14:46:54.419Z,7.65
2023-04-23T14:49:22.733Z,5.00
2023-04-23T14:51:53.959Z,4.68
2023-04-23T14:54:21.985Z,4.63
2023-04-23T14:56:50.230Z,7.47
2023-04-23T14:59:19.839Z,7.57
2023-04-23T15:01:47.945Z,12.88
2023-04-23T15:04:16.161Z,5.15
2023-04-23T15:06:44.196Z,10.20
2023-04-23T15:09:12.279Z,7.70
2023-04-23T15:11:42.249Z,6.20
2023-04-23T15:14:31.648Z,7.20
2023-04-23T15:16:59.881Z,8.70
2023-04-23T15:19:27.862Z,6.80
2023-04-23T15:21:55.939Z,9.15
2023-04-23T15:24:23.844Z,8.90
2023-04-23T15:26:53.347Z,12.50
2023-04-23T15:29:21.414Z,9.95
2023-04-23T15:31:51.991Z,7.82
2023-04-23T15:34:20.074Z,6.25
2023-04-23T15:36:48.109Z,13.18
2023-04-23T15:39:16.255Z,8.23
2023-04-23T15:41:46.161Z,8.05
2023-04-23T15:44:14.533Z,10.68
2023-04-23T15:46:42.607Z,8.65
2023-04-23T15:49:12.129Z,11.50
2023-04-23T15:51:40.237Z,7.28
2023-04-23T15:54:09.163Z,16.75
2023-04-23T15:56:37.735Z,7.00
2023-04-23T15:59:06.021Z,8.10
2023-04-23T16:01:34.363Z,9.20
2023-04-23T16:04:10.112Z,5.63
2023-04-23T16:06:41.063Z,9.52
2023-04-23T16:09:09.293Z,7.45
2023-04-23T16:11:37.910Z,7.00
2023-04-23T16:14:07.216Z,7.97
2023-04-23T16:16:35.317Z,8.63
2023-04-23T16:19:03.690Z,10.13
2023-04-23T16:21:32.809Z,11.70
2023-04-23T16:24:02.227Z,6.60
2023-04-23T16:26:30.693Z,9.27
2023-04-23T16:29:11.359Z,8.93
2023-04-23T16:31:47.493Z,12.38
2023-04-23T16:34:15.530Z,10.68
2023-04-23T16:36:43.669Z,8.90
2023-04-23T16:39:12.992Z,8.63
2023-04-23T16:41:41.161Z,7.22
2023-04-23T16:44:09.328Z,8.23
2023-04-23T16:46:37.707Z,11.23
2023-04-23T16:49:05.861Z,9.18
2023-04-23T16:51:34.024Z,8.73
2023-04-23T16:54:02.007Z,7.43
2023-04-23T16:56:31.438Z,10.70
2023-04-23T16:59:00.189Z,10.02
2023-04-23T17:01:28.253Z,9.65
2023-04-23T17:03:56.602Z,7.53
2023-04-23T17:06:28.189Z,7.72
2023-04-23T17:08:57.715Z,7.22
2023-04-23T17:11:26.260Z,8.00
2023-04-23T17:13:56.611Z,17.05
2023-04-23T17:16:26.707Z,6.95
2023-04-23T17:18:55.219Z,8.98
2023-04-23T17:21:23.742Z,8.35
2023-04-23T17:23:52.106Z,7.65
2023-04-23T17:26:20.288Z,10.45
2023-04-23T17:28:48.376Z,6.70
2023-04-23T17:31:18.586Z,10.80
2023-04-23T17:33:49.199Z,9.73
2023-04-23T17:36:17.919Z,10.48
2023-04-23T17:38:46.804Z,8.85
2023-04-23T17:41:14.841Z,10.27
2023-04-23T17:43:42.978Z,11.45
2023-04-23T17:46:10.949Z,7.40
2023-04-23T17:48:41.038Z,9.07
2023-04-23T17:51:12.568Z,11.13
2023-04-23T17:53:42.134Z,9.45
2023-04-23T17:56:10.732Z,9.32
2023-04-23T17:58:38.747Z,8.15
2023-04-23T18:01:08.591Z,8.38
2023-04-23T18:03:37.021Z,9.80
2023-04-23T18:06:09.235Z,9.25
2023-04-23T18:08:38.463Z,11.75
2023-04-23T18:11:08.000Z,10.70
2023-04-23T18:13:36.974Z,9.55
2023-04-23T18:16:05.303Z,12.10
2023-04-23T18:18:33.163Z,10.85
2023-04-23T18:21:03.004Z,8.52
2023-04-23T18:23:32.721Z,9.05
2023-04-23T18:26:01.965Z,11.27
2023-04-23T18:28:30.309Z,9.45
2023-04-23T18:31:02.426Z,9.77
2023-04-23T18:33:33.259Z,10.45
2023-04-23T18:36:05.774Z,8.25
2023-04-23T18:38:44.955Z,11.88
2023-04-23T18:41:13.294Z,14.48
2023-04-23T18:43:41.334Z,9.63
2023-04-23T18:46:09.604Z,9.30
2023-04-23T18:48:46.655Z,11.57
2023-04-23T18:51:21.293Z,10.13
2023-04-23T18:53:50.722Z,10.13
2023-04-23T18:56:19.940Z,9.50
2023-04-23T18:58:48.041Z,11.63
2023-04-23T19:01:16.292Z,11.88
2023-04-23T19:03:46.059Z,14.38
2023-04-23T19:06:14.282Z,13.00
2023-04-23T19:08:42.587Z,10.73
2023-04-23T19:11:12.127Z,12.18
2023-04-23T19:13:40.188Z,14.40
2023-04-23T19:16:09.608Z,13.75
2023-04-23T19:18:37.984Z,11.82
2023-04-23T19:21:06.111Z,14.68
2023-04-23T19:23:34.266Z,10.77
2023-04-23T19:26:03.259Z,13.38
2023-04-23T19:28:32.695Z,12.57
2023-04-23T19:31:00.735Z,12.63
2023-04-23T19:33:28.860Z,12.20
2023-04-23T19:35:57.068Z,12.40
2023-04-23T19:38:25.290Z,11.27
2023-04-23T19:40:53.343Z,10.85
2023-04-23T19:43:21.404Z,9.50
2023-04-23T19:45:50.800Z,12.57
2023-04-23T19:48:18.712Z,10.05
2023-04-23T19:50:47.893Z,12.20
2023-04-23T19:53:16.011Z,11.02
2023-04-23T19:55:44.185Z,14.00
2023-04-23T19:58:12.830Z,14.20
2023-04-23T20:00:41.783Z,12.85
2023-04-23T20:03:11.794Z,12.75
2023-04-23T20:05:42.360Z,10.30
2023-04-23T20:08:15.460Z,13.43
2023-04-23T20:10:44.097Z,10.65
2023-04-23T20:13:12.073Z,10.45
2023-04-23T20:15:40.341Z,9.30
2023-04-23T20:18:08.421Z,10.00
2023-04-23T20:20:39.887Z,9.02
2023-04-23T20:23:07.845Z,9.18
2023-04-23T20:25:36.638Z,9.50
2023-04-23T20:28:04.707Z,7.60
2023-04-23T20:30:32.799Z,7.22
2023-04-23T20:33:01.118Z,10.30
2023-04-23T20:35:30.683Z,6.15
2023-04-23T20:38:00.895Z,5.90
2023-04-23T20:40:29.151Z,6.35
2023-04-23T20:42:58.741Z,4.70
2023-04-23T20:45:26.712Z,5.85
2023-04-23T20:47:57.308Z,5.53
2023-04-23T20:50:25.387Z,5.45
2023-04-23T20:52:53.552Z,5.72
2023-04-23T20:55:22.963Z,4.78
2023-04-23T20:57:51.092Z,4.93
2023-04-23T21:00:20.414Z,4.93
2023-04-23T21:02:48.558Z,3.58
2023-04-23T21:05:16.758Z,3.22
2023-04-23T21:07:45.109Z,4.25
2023-04-23T21:10:13.445Z,3.10
2023-04-23T21:12:43.503Z,5.65
2023-04-23T21:15:14.593Z,4.35
2023-04-23T21:17:42.750Z,4.80
2023-04-23T21:20:11.351Z,4.53
2023-04-23T21:22:39.340Z,5.63
2023-04-23T21:25:08.071Z,4.95
2023-04-23T21:27:36.141Z,3.10
2023-04-23T21:30:09.699Z,2.70
2023-04-23T21:32:37.734Z,4.28
2023-04-23T21:35:06.991Z,4.35
2023-04-23T21:37:37.338Z,4.25
2023-04-23T21:40:06.401Z,6.63
2023-04-23T21:42:34.476Z,6.38
2023-04-23T21:45:02.682Z,4.60
2023-04-23T21:47:32.035Z,9.38
2023-04-23T21:50:00.248Z,3.30
2023-04-23T21:52:28.285Z,3.13
2023-04-23T21:54:56.281Z,5.43
2023-04-23T21:57:24.471Z,6.43
2023-04-23T21:59:52.678Z,2.45
2023-04-23T22:02:21.032Z,3.63
2023-04-23T22:04:50.755Z,4.55
2023-04-23T22:07:19.635Z,2.40
2023-04-23T22:09:47.625Z,4.15
2023-04-23T22:12:15.568Z,5.15
2023-04-23T22:14:43.548Z,4.03
2023-04-23T22:17:11.770Z,3.55
2023-04-23T22:19:39.764Z,3.20
2023-04-23T22:22:09.172Z,3.88
2023-04-23T22:24:37.341Z,2.83
2023-04-23T22:27:05.407Z,3.05
2023-04-23T22:29:33.472Z,2.72
2023-04-23T22:32:01.587Z,4.15
2023-04-23T22:34:29.546Z,4.30
2023-04-23T22:36:57.628Z,5.22
2023-04-23T22:39:27.016Z,1.67
2023-04-23T22:41:54.996Z,2.08
2023-04-23T22:44:22.951Z,3.75
2023-04-23T22:46:51.062Z,1.48
2023-04-23T22:49:19.410Z,2.22
2023-04-23T22:51:47.303Z,2.97
2023-04-23T22:54:15.318Z,1.92
2023-04-23T22:56:44.884Z,1.20
2023-04-23T22:59:13.565Z,1.20
2023-04-23T23:01:41.708Z,6.35
2023-04-23T23:04:10.541Z,1.95
2023-04-23T23:06:38.568Z,1.30
2023-04-23T23:09:07.443Z,1.20
2023-04-23T23:11:35.519Z,1.27
2023-04-23T23:14:05.813Z,0.95
2023-04-23T23:16:33.883Z,2.70
2023-04-23T23:19:01.964Z,2.13
2023-04-23T23:21:30.264Z,1.17
2023-04-23T23:23:58.229Z,2.10
2023-04-23T23:26:26.457Z,1.05
2023-04-23T23:28:54.431Z,2.33
2023-04-23T23:31:25.973Z,2.15
2023-04-23T23:33:54.397Z,1.27
2023-04-23T23:36:22.469Z,1.58
2023-04-23T23:38:51.042Z,0.98
2023-04-23T23:41:19.111Z,1.17
2023-04-23T23:43:47.122Z,2.25
2023-04-23T23:46:17.988Z,1.30
2023-04-23T23:48:47.687Z,0.70
2023-04-23T23:51:16.032Z,1.50
2023-04-23T23:53:44.279Z,1.55
2023-04-23T23:56:12.291Z,0.93
2023-04-23T23:58:40.280Z,1.10
